sensor_id;sensor_type;location;lat;lon;timestamp;P1;durP1;ratioP1;P2;durP2;ratioP2
38248;SDS011;24045;51.138;17.126;2023-07-16T00:01:41;8.70;;;5.10;;
38248;SDS011;24045;51.138;17.126;2023-07-16T00:16:44;9.10;;;5.80;;
38248;SDS011;24045;51.138;17.126;2023-07-16T00:31:47;9.40;;;6.30;;
38248;SDS011;24045;51.138;17.126;2023-07-16T00:46:50;9.50;;;5.70;;
38248;SDS011;24045;51.138;17.126;2023-07-16T01:01:53;9.10;;;6.60;;
38248;SDS011;24045;51.138;17.126;2023-07-16T01:16:56;9.80;;;6.10;;
38248;SDS011;24045;51.138;17.126;2023-07-16T01:32:03;8.80;;;5.70;;
38248;SDS011;24045;51.138;17.126;2023-07-16T01:47:11;9.40;;;6.10;;
38248;SDS011;24045;51.138;17.126;2023-07-16T02:02:23;11.70;;;5.70;;
38248;SDS011;24045;51.138;17.126;2023-07-16T02:17:26;8.00;;;5.10;;
38248;SDS011;24045;51.138;17.126;2023-07-16T02:32:29;8.40;;;5.60;;
38248;SDS011;24045;51.138;17.126;2023-07-16T02:47:31;8.20;;;5.70;;
38248;SDS011;24045;51.138;17.126;2023-07-16T03:02:34;8.70;;;5.30;;
38248;SDS011;24045;51.138;17.126;2023-07-16T03:17:37;10.00;;;6.00;;
38248;SDS011;24045;51.138;17.126;2023-07-16T03:32:40;8.90;;;5.20;;
38248;SDS011;24045;51.138;17.126;2023-07-16T03:47:55;8.20;;;5.30;;
38248;SDS011;24045;51.138;17.126;2023-07-16T04:02:58;9.30;;;5.90;;
38248;SDS011;24045;51.138;17.126;2023-07-16T04:18:01;8.40;;;4.80;;
38248;SDS011;24045;51.138;17.126;2023-07-16T04:33:04;7.80;;;4.70;;
38248;SDS011;24045;51.138;17.126;2023-07-16T04:48:08;9.00;;;4.60;;
38248;SDS011;24045;51.138;17.126;2023-07-16T05:03:10;9.10;;;4.30;;
38248;SDS011;24045;51.138;17.126;2023-07-16T05:18:13;10.20;;;3.70;;
38248;SDS011;24045;51.138;17.126;2023-07-16T05:33:16;8.60;;;3.50;;
38248;SDS011;24045;51.138;17.126;2023-07-16T05:48:19;9.10;;;3.20;;
38248;SDS011;24045;51.138;17.126;2023-07-16T06:03:22;6.40;;;2.30;;
38248;SDS011;24045;51.138;17.126;2023-07-16T06:18:25;6.20;;;2.50;;
38248;SDS011;24045;51.138;17.126;2023-07-16T06:33:28;5.90;;;2.60;;
38248;SDS011;24045;51.138;17.126;2023-07-16T06:48:31;4.60;;;2.40;;
38248;SDS011;24045;51.138;17.126;2023-07-16T07:03:34;4.40;;;2.10;;
38248;SDS011;24045;51.138;17.126;2023-07-16T07:18:37;4.80;;;1.70;;
38248;SDS011;24045;51.138;17.126;2023-07-16T07:33:40;6.10;;;2.10;;
38248;SDS011;24045;51.138;17.126;2023-07-16T07:48:42;5.20;;;1.80;;
38248;SDS011;24045;51.138;17.126;2023-07-16T08:03:45;4.40;;;1.60;;
38248;SDS011;24045;51.138;17.126;2023-07-16T08:18:48;3.50;;;1.40;;
38248;SDS011;24045;51.138;17.126;2023-07-16T08:33:52;2.60;;;1.70;;
38248;SDS011;24045;51.138;17.126;2023-07-16T08:48:55;2.50;;;1.50;;
38248;SDS011;24045;51.138;17.126;2023-07-16T09:03:59;2.80;;;1.60;;
38248;SDS011;24045;51.138;17.126;2023-07-16T09:19:20;5.00;;;1.80;;
38248;SDS011;24045;51.138;17.126;2023-07-16T09:34:23;3.70;;;1.90;;
38248;SDS011;24045;51.138;17.126;2023-07-16T09:49:30;3.80;;;2.00;;
38248;SDS011;24045;51.138;17.126;2023-07-16T10:04:39;3.50;;;1.80;;
38248;SDS011;24045;51.138;17.126;2023-07-16T10:35:02;4.50;;;2.60;;
38248;SDS011;24045;51.138;17.126;2023-07-16T10:50:08;4.80;;;2.00;;
38248;SDS011;24045;51.138;17.126;2023-07-16T11:05:12;3.80;;;2.10;;
38248;SDS011;24045;51.138;17.126;2023-07-16T11:20:16;3.30;;;1.80;;
38248;SDS011;24045;51.138;17.126;2023-07-16T11:35:22;3.50;;;1.70;;
38248;SDS011;24045;51.138;17.126;2023-07-16T11:50:25;4.50;;;2.50;;
38248;SDS011;24045;51.138;17.126;2023-07-16T12:05:28;3.80;;;2.00;;
38248;SDS011;24045;51.138;17.126;2023-07-16T12:20:51;3.90;;;2.00;;
38248;SDS011;24045;51.138;17.126;2023-07-16T12:35:54;2.90;;;1.70;;
38248;SDS011;24045;51.138;17.126;2023-07-16T12:50:57;4.20;;;1.60;;
38248;SDS011;24045;51.138;17.126;2023-07-16T13:06:00;3.80;;;1.60;;
38248;SDS011;24045;51.138;17.126;2023-07-16T13:21:06;3.20;;;1.70;;
38248;SDS011;24045;51.138;17.126;2023-07-16T13:36:10;3.00;;;1.90;;
38248;SDS011;24045;51.138;17.126;2023-07-16T13:51:13;3.80;;;2.00;;
38248;SDS011;24045;51.138;17.126;2023-07-16T14:06:16;8.80;;;2.30;;
38248;SDS011;24045;51.138;17.126;2023-07-16T14:21:19;5.80;;;2.00;;
38248;SDS011;24045;51.138;17.126;2023-07-16T14:36:22;7.90;;;2.80;;
38248;SDS011;24045;51.138;17.126;2023-07-16T14:51:25;6.80;;;2.60;;
38248;SDS011;24045;51.138;17.126;2023-07-16T15:06:28;4.10;;;2.20;;
38248;SDS011;24045;51.138;17.126;2023-07-16T15:21:31;3.20;;;2.10;;
38248;SDS011;24045;51.138;17.126;2023-07-16T15:36:34;3.60;;;2.30;;
38248;SDS011;24045;51.138;17.126;2023-07-16T15:51:36;4.50;;;2.20;;
38248;SDS011;24045;51.138;17.126;2023-07-16T16:06:43;3.90;;;2.40;;
38248;SDS011;24045;51.138;17.126;2023-07-16T16:21:48;4.90;;;2.60;;
38248;SDS011;24045;51.138;17.126;2023-07-16T16:36:51;5.00;;;2.40;;
38248;SDS011;24045;51.138;17.126;2023-07-16T16:51:57;5.20;;;2.70;;
38248;SDS011;24045;51.138;17.126;2023-07-16T17:07:00;4.20;;;2.40;;
38248;SDS011;24045;51.138;17.126;2023-07-16T17:22:03;4.40;;;2.30;;
38248;SDS011;24045;51.138;17.126;2023-07-16T17:37:09;5.00;;;2.40;;
38248;SDS011;24045;51.138;17.126;2023-07-16T17:52:12;4.10;;;2.40;;
38248;SDS011;24045;51.138;17.126;2023-07-16T18:07:15;3.90;;;2.30;;
38248;SDS011;24045;51.138;17.126;2023-07-16T18:22:19;5.60;;;2.40;;
38248;SDS011;24045;51.138;17.126;2023-07-16T18:37:33;5.60;;;2.60;;
38248;SDS011;24045;51.138;17.126;2023-07-16T18:52:35;4.70;;;2.40;;
38248;SDS011;24045;51.138;17.126;2023-07-16T19:07:38;6.00;;;3.00;;
38248;SDS011;24045;51.138;17.126;2023-07-16T19:22:41;5.40;;;2.80;;
38248;SDS011;24045;51.138;17.126;2023-07-16T19:37:47;25.50;;;11.30;;
38248;SDS011;24045;51.138;17.126;2023-07-16T19:52:50;12.00;;;6.00;;
38248;SDS011;24045;51.138;17.126;2023-07-16T20:07:53;11.00;;;5.90;;
38248;SDS011;24045;51.138;17.126;2023-07-16T20:22:59;11.10;;;4.60;;
38248;SDS011;24045;51.138;17.126;2023-07-16T20:38:02;9.20;;;4.10;;
38248;SDS011;24045;51.138;17.126;2023-07-16T20:53:11;7.50;;;3.80;;
38248;SDS011;24045;51.138;17.126;2023-07-16T21:08:14;7.70;;;4.40;;
38248;SDS011;24045;51.138;17.126;2023-07-16T21:23:17;9.20;;;5.00;;
38248;SDS011;24045;51.138;17.126;2023-07-16T21:38:20;7.30;;;4.30;;
38248;SDS011;24045;51.138;17.126;2023-07-16T21:53:22;6.90;;;3.80;;
38248;SDS011;24045;51.138;17.126;2023-07-16T22:08:26;11.70;;;5.70;;
38248;SDS011;24045;51.138;17.126;2023-07-16T22:23:29;11.30;;;4.70;;
38248;SDS011;24045;51.138;17.126;2023-07-16T22:38:31;7.90;;;4.80;;
38248;SDS011;24045;51.138;17.126;2023-07-16T22:53:34;8.50;;;4.40;;
38248;SDS011;24045;51.138;17.126;2023-07-16T23:08:43;8.40;;;4.20;;
38248;SDS011;24045;51.138;17.126;2023-07-16T23:23:46;7.90;;;4.80;;
38248;SDS011;24045;51.138;17.126;2023-07-16T23:38:49;7.40;;;4.60;;
38248;SDS011;24045;51.138;17.126;2023-07-16T23:53:52;8.70;;;5.00;;
